Flight Track Log - Related Links

Times and Time Zones

All times are in EDT time to prevent confusion due to time zone crossing. See the FEX300 flight status page for this flight to view local times or setup timezone preferences in your user account.

Time Position Orientation Groundspeed Altitude Reporting Facility
EDT Latitude Longitude Course Direction KTS MPH feet Rate Location/Type
Fri 07:24:39 PM 43.0333 -81.1000 56° Northeast 140 161 2,100  Level Toronto Center
Fri 07:25:39 PM 43.0500 -81.0500 65° Northeast 140 161 3,700 1,350 Climbing Toronto Center
Fri 07:26:39 PM 43.0833 -81.0000 48° Northeast 160 184 4,800 1,200 Climbing Toronto Center
Fri 07:27:39 PM 43.1167 -80.9500 48° Northeast 170 196 6,100 1,050 Climbing Toronto Center
Fri 07:28:39 PM 43.1333 -80.9167 56° Northeast 170 196 6,900 450 Climbing Toronto Center
Fri 07:29:00 PM 43.2597 -80.6807 57° Northeast  Level Estimated
Fri 07:29:39 PM 43.1833 -80.8500 44° Northeast 200 230 7,000  Level Toronto Center
Fri 07:30:39 PM 43.2333 -80.7833 44° Northeast 210 242 7,000 -50 Level Toronto Center
Fri 07:31:39 PM 43.2833 -80.7500 26° Northeast 220 253 6,900 -50 Descending Toronto Center
Fri 07:32:39 PM 43.3500 -80.7333 10° North 220 253 6,900  Level Toronto Center
Fri 07:33:39 PM 43.4000 -80.6667 44° Northeast 220 253 6,900 50 Level Toronto Center
Fri 07:34:39 PM 43.4500 -80.6167 36° Northeast 220 253 7,000 50 Climbing Toronto Center
Fri 07:35:39 PM 43.5000 -80.5833 26° Northeast 220 253 7,000  Level Toronto Center
Fri 07:36:39 PM 43.5500 -80.5333 36° Northeast 220 253 7,000  Level Toronto Center
Fri 07:37:39 PM 43.5833 -80.4667 55° Northeast 220 253 7,000  Level Toronto Center
Fri 07:38:39 PM 43.6333 -80.4167 36° Northeast 220 253 7,000  Level Toronto Center
Fri 07:39:39 PM 43.6667 -80.3500 55° Northeast 210 242 7,000  Level Toronto Center
Fri 07:40:39 PM 43.7000 -80.2833 55° Northeast 210 242 7,000 -500 Level Toronto Center
Fri 07:41:39 PM 43.7167 -80.1833 77° East 230 265 6,000 -550 Descending Toronto Center
Fri 07:42:39 PM 43.7500 -80.1167 55° Northeast 230 265 5,900 -1,050 Descending Toronto Center
Fri 07:43:39 PM 43.7667 -80.0333 74° East 240 276 3,900 -1,000 Descending Toronto Center
Fri 07:44:39 PM 43.8000 -79.9500 61° Northeast 230 265 3,900  Level Toronto Center
Fri 07:45:39 PM 43.8333 -79.8833 55° Northeast 220 253 3,900  Level Toronto Center
Fri 07:46:39 PM 43.8833 -79.8167 44° Northeast 220 253 3,900 -500 Level Toronto Center
Fri 07:47:39 PM 43.9167 -79.7500 55° Northeast 230 265 2,900 -500 Descending Toronto Center
Fri 07:48:39 PM 43.9500 -79.6833 55° Northeast 230 265 2,900  Level Toronto Center
Fri 07:49:39 PM 43.9833 -79.6167 55° Northeast 220 253 2,900 50 Level Toronto Center
Fri 07:50:39 PM 44.0000 -79.5333 74° East 200 230 3,000 -150 Climbing Toronto Center
Fri 07:51:39 PM 43.9833 -79.5000 125° Southeast 140 161 2,600 -500 Descending Toronto Center
Fri 07:52:39 PM 43.9500 -79.4667 144° Southeast 130 150 2,000 -350 Descending Toronto Center
Fri 07:53:39 PM 43.9333 -79.4167 115° Southeast 130 150 1,900 -150 Descending Toronto Center
Fri 07:54:39 PM 43.9000 -79.4000 160° South 130 150 1,700 -450 Descending Toronto Center
Fri 07:55:39 PM 43.8667 -79.3833 160° South 130 150 1,000 -700 Descending Toronto Center

Login

Don't have an account? Register now (free) for customized features, flight alerts, and more!